LJLJ Airport Information

Runway Information
Runway 13 Length 10827 ft width 148 ft
Elevation 1273 ft Threshold 0 ft Heading 126
Runway 31 Length 10827 ft Width 148 ft
Elevation 1191 ft Threshold 0 ft Heading 306
Airport Frequencies
Type A/D Name APP Frequency 135.275 MHZ
Type ATIS Name also on VO Frequency 128.175 MHZ
Type GND Name Frequency 121.625 MHZ
Type HANDLING & Name Frequency 131.4 MHZ
Type TWR Name TWR Frequency 118 MHZ
Airport Navaids
Type VOR-DME Name Dolsko Frequency 112700 KHZ
Type NDB Name Dolsko Frequency 328 KHZ
Type NDB Name Ljubljana Frequency 296 KHZ
Airport Weather Information & NOTAM
ADDS - METARS form results

(1722 UTC 13 July 2020)
Data provider http://aviationweather.gov/metar/data/
 
METAR text: LJLJ 131700Z 11009KT 9999 FEW060 21/09 Q1019 NOSIG
Conditions at: LJLJ (LJUBLJANA/BRNIK , SI) observed 1700 UTC 13 July 2020
Temperature: 21.0°C (70°F)
Dewpoint: 9.0°C (48°F) [RH = 46%]
Pressure (altimeter): 30.09 inches Hg (1019.0 mb)
Winds: from the ESE (110 degrees) at 10 MPH (9 knots; 4.6 m/s)
Visibility: 6 or more miles (10+ km)
Ceiling: at least 12,000 feet AGL
Clouds: few clouds at 6000 feet AGL
Weather: no significant weather observed at this time

METAR text: LJLJ 131630Z 09011KT 9999 FEW060 21/08 Q1019 NOSIG
Conditions at: LJLJ (LJUBLJANA/BRNIK , SI) observed 1630 UTC 13 July 2020
Temperature: 21.0°C (70°F)
Dewpoint: 8.0°C (46°F) [RH = 43%]
Pressure (altimeter): 30.09 inches Hg (1019.0 mb)
Winds: from the E (90 degrees) at 13 MPH (11 knots; 5.7 m/s)
Visibility: 6 or more miles (10+ km)
Ceiling: at least 12,000 feet AGL
Clouds: few clouds at 6000 feet AGL
Weather: no significant weather observed at this time

Forecast for: LJLJ (LJUBLJANA/BRNIK , SI)
Text: TAF LJLJ 131700Z 1318/1418 11005KT 9999 FEW060
Forecast period: 1800 UTC 13 July 2020 to 1800 UTC 14 July 2020
Forecast type: FROM: standard forecast or significant change
Winds: from the ESE (110 degrees) at 6 MPH (5 knots; 2.6 m/s)
Visibility: 6 or more miles 10+ km)
Ceiling: at least 12,000 feet AGL
Clouds: few clouds at 6000 feet AGL
Weather: no significant weather forecast for this period
Text: PROB40
Forecast period: 1000 to 1700 UTC 14 July 2020
Forecast type: TEMPORARY: The following changes expected for less than half the time period
Winds: from the ESE (110 degrees) at 14 MPH (12 knots; 6.2 m/s)
Visibility: missing
Ceiling: unknown
Clouds: missing
Weather: no significant weather forecast for this period